Time;durP1;ratioP1;P1;durP2;ratioP2;P2;SDS_P1;SDS_P2;PMS_P1;PMS_P2;Temp;Humidity;BMP_temperature;BMP_pressure;BME280_temperature;BME280_humidity;BME280_pressure;Samples;Min_cycle;Max_cycle;Signal;HPM_P1;HPM_P2
2020/12/18 00:00:33;;;;;;;7.13;3.60;;;7.00;92.90;;;;;;2053748;28;22636;-81
2020/12/18 00:01:34;;;;;;;5.18;3.40;;;7.00;92.70;;;;;;2050958;28;20047;-81
2020/12/18 00:02:34;;;;;;;5.63;3.42;;;6.90;92.60;;;;;;2055353;28;20034;-81
2020/12/18 00:03:35;;;;;;;5.93;3.00;;;6.90;92.70;;;;;;2041248;29;20394;-81
2020/12/18 00:04:36;;;;;;;5.95;3.40;;;7.00;92.70;;;;;;2048612;28;20028;-82
2020/12/18 00:05:40;;;;;;;5.20;2.90;;;7.00;92.70;;;;;;2057254;28;20027;-81
2020/12/18 00:06:40;;;;;;;4.88;3.10;;;6.90;92.70;;;;;;2055506;28;20057;-81
2020/12/18 00:07:42;;;;;;;7.47;3.58;;;7.00;92.70;;;;;;2052909;28;20433;-81
2020/12/18 00:08:43;;;;;;;5.75;3.50;;;6.90;92.70;;;;;;2052336;28;20090;-81
2020/12/18 00:09:44;;;;;;;4.53;3.00;;;6.90;92.70;;;;;;2051562;28;20067;-81
2020/12/18 00:10:45;;;;;;;5.10;3.15;;;6.90;92.70;;;;;;2049030;28;20039;-81
2020/12/18 00:11:45;;;;;;;5.95;3.45;;;6.90;92.70;;;;;;2053656;28;20037;-81
2020/12/18 00:12:46;;;;;;;5.53;3.13;;;6.90;92.70;;;;;;2055326;28;20365;-81
2020/12/18 00:13:47;;;;;;;5.78;3.50;;;6.90;92.70;;;;;;2038062;29;20039;-81
2020/12/18 00:14:47;;;;;;;6.30;3.78;;;6.90;92.80;;;;;;2037964;29;20035;-81
2020/12/18 00:15:48;;;;;;;6.00;3.40;;;6.90;92.80;;;;;;2036216;29;20190;-81
2020/12/18 00:16:49;;;;;;;5.78;3.30;;;6.90;92.70;;;;;;2044841;29;20030;-81
2020/12/18 00:17:49;;;;;;;5.40;3.25;;;6.90;92.80;;;;;;2035670;29;20521;-80
2020/12/18 00:18:50;;;;;;;5.30;3.55;;;6.90;92.80;;;;;;2038148;29;20035;-81
2020/12/18 00:19:51;;;;;;;5.75;3.67;;;6.90;92.80;;;;;;2048195;28;20031;-81
2020/12/18 00:20:52;;;;;;;5.70;3.30;;;6.90;92.80;;;;;;2055221;28;20114;-81
2020/12/18 00:21:56;;;;;;;6.45;3.53;;;6.90;92.80;;;;;;2047785;28;20039;-81
2020/12/18 00:22:57;;;;;;;5.43;3.50;;;6.90;92.80;;;;;;2049033;28;20039;-81
2020/12/18 00:23:57;;;;;;;7.88;3.63;;;6.90;92.80;;;;;;2049982;28;20070;-81
2020/12/18 00:24:58;;;;;;;6.15;3.17;;;6.90;92.80;;;;;;2056765;28;20023;-81
2020/12/18 00:25:58;;;;;;;6.18;3.70;;;6.90;92.80;;;;;;2054258;28;20473;-81
2020/12/18 00:26:59;;;;;;;6.95;3.67;;;6.90;92.80;;;;;;2045765;29;20031;-81
2020/12/18 00:28:00;;;;;;;6.03;3.25;;;6.90;92.80;;;;;;2048682;29;20082;-81
2020/12/18 00:29:01;;;;;;;5.22;3.30;;;6.90;92.80;;;;;;2036051;29;20032;-80
2020/12/18 00:30:02;;;;;;;6.13;3.30;;;6.90;92.80;;;;;;2047621;28;20023;-81
2020/12/18 00:31:03;;;;;;;4.93;3.33;;;6.90;92.90;;;;;;2053544;28;20390;-81
2020/12/18 00:32:07;;;;;;;6.70;3.60;;;6.90;93.10;;;;;;2053782;28;20042;-81
2020/12/18 00:33:07;;;;;;;5.70;3.17;;;6.90;92.90;;;;;;2049801;28;20093;-81
2020/12/18 00:34:08;;;;;;;5.28;3.22;;;6.90;92.90;;;;;;2053664;28;20057;-81
2020/12/18 00:35:11;;;;;;;5.90;3.70;;;6.90;92.90;;;;;;2057039;28;20043;-80
2020/12/18 00:36:12;;;;;;;6.85;3.45;;;6.90;92.90;;;;;;2051419;28;20023;-81
2020/12/18 00:37:13;;;;;;;6.05;3.47;;;6.90;92.90;;;;;;2054397;28;20028;-81
2020/12/18 00:38:13;;;;;;;6.43;3.50;;;6.90;92.90;;;;;;2056703;28;20482;-81
2020/12/18 00:39:14;;;;;;;6.82;3.80;;;6.90;92.90;;;;;;2039920;29;20031;-81
2020/12/18 00:40:15;;;;;;;5.25;3.28;;;6.90;92.90;;;;;;2040627;29;20134;-81
2020/12/18 00:41:15;;;;;;;5.45;3.10;;;7.00;92.90;;;;;;2048030;28;20407;-79
2020/12/18 00:42:16;;;;;;;6.32;3.88;;;7.00;93.20;;;;;;2048147;28;20569;-79
2020/12/18 00:43:16;;;;;;;5.45;3.83;;;6.90;92.90;;;;;;2050879;28;20035;-79
2020/12/18 00:44:17;;;;;;;5.80;3.72;;;7.00;92.90;;;;;;2052707;28;20561;-79
2020/12/18 00:45:18;;;;;;;8.15;4.10;;;7.00;92.90;;;;;;2046637;29;20442;-79
2020/12/18 00:46:18;;;;;;;6.43;3.92;;;7.00;92.90;;;;;;2051299;28;20111;-79
2020/12/18 00:47:19;;;;;;;6.78;3.95;;;7.00;92.90;;;;;;2054076;28;20073;-79
2020/12/18 00:48:19;;;;;;;9.02;3.90;;;7.00;92.90;;;;;;2048756;28;20090;-79
2020/12/18 00:49:20;;;;;;;6.32;3.83;;;6.90;92.90;;;;;;2048576;28;20039;-79
2020/12/18 00:50:21;;;;;;;6.22;3.90;;;7.00;92.90;;;;;;2056465;28;20030;-79
2020/12/18 00:51:21;;;;;;;8.15;4.30;;;7.00;92.90;;;;;;2048138;28;20130;-79
2020/12/18 00:52:25;;;;;;;7.03;4.13;;;7.00;92.90;;;;;;2039664;29;20035;-79
2020/12/18 00:53:26;;;;;;;6.22;4.00;;;7.00;92.90;;;;;;2040977;29;20052;-79
2020/12/18 00:54:26;;;;;;;8.00;4.18;;;7.00;92.90;;;;;;2046171;29;20031;-79
2020/12/18 00:55:27;;;;;;;6.90;4.25;;;7.00;92.90;;;;;;2040497;28;20038;-79
2020/12/18 00:56:28;;;;;;;7.13;3.65;;;7.00;92.90;;;;;;2033003;29;20483;-79
2020/12/18 00:57:28;;;;;;;5.35;3.72;;;7.00;92.90;;;;;;2032634;29;20142;-79
2020/12/18 00:58:29;;;;;;;5.82;4.07;;;7.00;92.90;;;;;;2032310;29;20033;-79
2020/12/18 00:59:30;;;;;;;6.10;4.20;;;7.00;92.90;;;;;;2046187;28;20078;-79
2020/12/18 01:00:30;;;;;;;7.88;4.22;;;7.00;92.90;;;;;;2048400;28;20034;-78
2020/12/18 01:01:31;;;;;;;5.82;3.78;;;7.00;92.90;;;;;;2054808;28;20049;-79
2020/12/18 01:02:32;;;;;;;6.85;4.00;;;7.00;92.90;;;;;;2051686;28;20105;-79
2020/12/18 01:03:32;;;;;;;6.22;4.00;;;6.90;92.90;;;;;;2054042;28;20077;-79
2020/12/18 01:04:33;;;;;;;8.60;4.43;;;6.90;92.90;;;;;;2046394;28;20101;-79
2020/12/18 01:05:34;;;;;;;5.63;3.83;;;7.00;92.90;;;;;;2043139;28;20528;-79
2020/12/18 01:06:34;;;;;;;7.13;3.85;;;7.00;92.90;;;;;;2050287;28;20071;-79
2020/12/18 01:07:35;;;;;;;6.20;3.80;;;6.90;92.90;;;;;;2047474;29;20038;-79
2020/12/18 01:08:36;;;;;;;6.10;3.63;;;6.90;92.90;;;;;;2054827;28;20046;-79
2020/12/18 01:09:36;;;;;;;7.47;4.30;;;7.00;93.00;;;;;;2054609;28;20468;-79
2020/12/18 01:10:37;;;;;;;9.30;4.00;;;7.00;93.00;;;;;;2056655;28;20400;-79
2020/12/18 01:11:38;;;;;;;5.72;3.80;;;7.00;93.00;;;;;;2055482;28;20047;-79
2020/12/18 01:12:39;;;;;;;7.50;4.13;;;7.00;93.00;;;;;;2051713;28;20078;-79
2020/12/18 01:13:39;;;;;;;7.85;4.10;;;7.00;92.90;;;;;;2055559;28;20038;-79
2020/12/18 01:14:40;;;;;;;7.35;4.18;;;7.00;93.00;;;;;;2044727;28;20118;-79
2020/12/18 01:15:41;;;;;;;6.82;3.53;;;6.90;92.90;;;;;;2046268;29;20050;-79
2020/12/18 01:16:41;;;;;;;5.97;3.72;;;7.00;93.00;;;;;;2055879;28;20026;-80
2020/12/18 01:17:42;;;;;;;5.97;3.50;;;7.00;93.00;;;;;;2051248;28;20031;-79
2020/12/18 01:18:43;;;;;;;7.20;4.00;;;7.00;93.00;;;;;;2051320;28;20082;-79
2020/12/18 01:19:43;;;;;;;6.68;3.60;;;7.00;93.00;;;;;;2051652;28;20487;-79
2020/12/18 01:20:44;;;;;;;7.07;4.07;;;7.00;92.90;;;;;;2056063;28;20043;-79
2020/12/18 01:21:46;;;;;;;6.25;4.18;;;7.00;93.00;;;;;;2054751;28;20067;-79
2020/12/18 01:22:46;;;;;;;5.97;4.05;;;7.00;93.00;;;;;;2056516;28;20022;-80
2020/12/18 01:24:20;;;;;;;6.03;3.90;;;6.90;92.90;;;;;;2047976;29;20474;-80
2020/12/18 01:25:40;;;;;;;5.93;3.80;;;7.00;93.00;;;;;;2033071;28;20035;-79
2020/12/18 01:26:42;;;;;;;6.70;4.00;;;7.00;92.90;;;;;;2053560;28;20097;-79
2020/12/18 01:27:42;;;;;;;6.82;3.80;;;6.90;93.20;;;;;;2056530;28;20030;-79
2020/12/18 01:28:43;;;;;;;5.40;3.47;;;6.90;92.90;;;;;;2053041;28;20066;-79
2020/12/18 01:29:44;;;;;;;7.72;3.92;;;6.90;92.90;;;;;;2053354;28;20019;-79
2020/12/18 01:30:44;;;;;;;6.30;3.67;;;6.90;92.90;;;;;;2055634;28;20587;-80
2020/12/18 01:31:45;;;;;;;5.95;3.53;;;7.00;93.00;;;;;;2054135;28;20038;-79
2020/12/18 01:32:45;;;;;;;7.07;3.95;;;7.00;93.00;;;;;;2050769;28;20122;-80
2020/12/18 01:33:46;;;;;;;5.88;3.53;;;7.00;93.00;;;;;;2050626;28;20031;-80
2020/12/18 01:34:47;;;;;;;5.90;3.70;;;7.00;93.00;;;;;;2040305;29;20024;-80
2020/12/18 01:35:47;;;;;;;5.85;3.83;;;6.90;92.90;;;;;;2048448;28;20568;-80
2020/12/18 01:36:48;;;;;;;6.22;3.50;;;6.90;93.00;;;;;;2051598;28;22143;-80
2020/12/18 01:37:48;;;;;;;6.68;3.85;;;6.90;92.90;;;;;;2056123;28;20469;-80
2020/12/18 01:38:49;;;;;;;6.47;3.90;;;6.90;93.00;;;;;;2051244;28;20090;-80
2020/12/18 01:39:50;;;;;;;6.88;3.80;;;6.90;92.90;;;;;;2047070;29;20485;-80
2020/12/18 01:40:50;;;;;;;5.05;3.53;;;7.00;93.00;;;;;;2048119;28;20035;-80
2020/12/18 01:41:51;;;;;;;6.90;3.65;;;6.90;92.90;;;;;;2049303;28;20122;-80
2020/12/18 01:42:52;;;;;;;8.27;3.40;;;7.00;93.00;;;;;;2043615;29;20031;-80
2020/12/18 01:43:52;;;;;;;6.90;3.50;;;6.90;93.00;;;;;;2037662;29;20604;-80
2020/12/18 01:44:53;;;;;;;6.15;3.63;;;6.90;93.00;;;;;;2055018;28;20034;-80
2020/12/18 01:46:02;;;;;;;7.22;3.72;;;6.90;93.00;;;;;;2055385;28;20030;-80
2020/12/18 01:47:03;;;;;;;5.03;3.50;;;6.90;93.00;;;;;;2055282;28;20034;-80
2020/12/18 01:48:03;;;;;;;6.82;3.85;;;6.90;93.00;;;;;;2054031;28;20402;-80
2020/12/18 01:49:04;;;;;;;5.80;3.35;;;6.90;93.00;;;;;;2048221;28;20042;-80
2020/12/18 01:50:05;;;;;;;6.15;3.80;;;6.90;93.00;;;;;;2040234;29;20031;-80
2020/12/18 01:51:09;;;;;;;4.95;3.22;;;6.90;93.00;;;;;;2044860;28;20059;-80
2020/12/18 01:52:10;;;;;;;6.13;3.67;;;6.90;93.00;;;;;;2045409;28;20027;-80
2020/12/18 01:53:11;;;;;;;6.72;4.10;;;7.00;93.00;;;;;;2043779;29;20054;-80
2020/12/18 01:54:12;;;;;;;6.55;3.80;;;6.90;93.00;;;;;;2047439;28;20066;-80
2020/12/18 01:55:13;;;;;;;5.75;3.70;;;6.90;93.00;;;;;;2049647;28;20031;-80
2020/12/18 01:56:14;;;;;;;7.22;3.90;;;6.90;93.00;;;;;;2052694;28;20027;-80
2020/12/18 01:57:15;;;;;;;5.80;3.70;;;6.90;93.00;;;;;;2056080;28;20030;-80
2020/12/18 01:58:16;;;;;;;5.70;3.85;;;6.90;93.00;;;;;;2052437;28;20028;-80
2020/12/18 01:59:18;;;;;;;8.05;3.90;;;6.90;93.00;;;;;;2054280;28;20122;-80
2020/12/18 02:00:20;;;;;;;5.50;3.35;;;6.90;93.00;;;;;;2046282;28;20174;-80
2020/12/18 02:01:20;;;;;;;7.70;3.40;;;6.90;93.00;;;;;;2053711;28;20057;-80
2020/12/18 02:02:21;;;;;;;5.65;3.40;;;6.90;93.00;;;;;;2055732;28;20405;-80
2020/12/18 02:03:22;;;;;;;4.22;3.03;;;6.90;93.00;;;;;;2039628;29;20067;-80
2020/12/18 02:04:22;;;;;;;5.80;3.78;;;6.90;93.00;;;;;;2022835;29;20029;-79
2020/12/18 02:05:23;;;;;;;6.65;3.67;;;6.90;93.00;;;;;;2039955;29;20499;-80
2020/12/18 02:06:26;;;;;;;5.75;3.88;;;6.90;93.00;;;;;;2051189;28;20039;-80
2020/12/18 02:07:29;;;;;;;5.40;3.47;;;6.90;93.00;;;;;;2045255;28;20027;-80
2020/12/18 02:08:30;;;;;;;5.47;3.60;;;6.90;93.00;;;;;;2055346;28;20030;-80
2020/12/18 02:09:31;;;;;;;6.93;3.63;;;6.90;93.30;;;;;;2048921;28;20456;-80
2020/12/18 02:10:33;;;;;;;6.82;3.58;;;6.90;93.00;;;;;;2039955;29;20094;-80
2020/12/18 02:11:34;;;;;;;5.60;3.50;;;6.90;93.00;;;;;;2049692;28;20027;-80
2020/12/18 02:12:34;;;;;;;5.82;3.28;;;6.90;93.00;;;;;;2048892;28;20066;-80
2020/12/18 02:13:35;;;;;;;4.72;3.30;;;6.90;93.00;;;;;;2048218;28;20118;-80
2020/12/18 02:14:37;;;;;;;5.22;3.40;;;6.90;93.00;;;;;;2060704;28;20496;-80
2020/12/18 02:15:38;;;;;;;5.55;3.58;;;6.90;93.10;;;;;;2055989;28;20134;-80
2020/12/18 02:16:39;;;;;;;5.72;3.38;;;6.90;93.10;;;;;;2050057;28;20035;-80
2020/12/18 02:17:40;;;;;;;5.82;3.45;;;6.90;93.30;;;;;;2049005;28;20125;-80
2020/12/18 02:18:41;;;;;;;7.32;3.90;;;6.90;93.10;;;;;;2049017;28;20078;-79
2020/12/18 02:19:50;;;;;;;7.55;3.30;;;6.90;93.10;;;;;;2046833;28;20604;-79
2020/12/18 02:20:51;;;;;;;6.13;3.35;;;6.90;93.10;;;;;;2039848;29;20027;-79
2020/12/18 02:21:52;;;;;;;6.70;3.45;;;6.90;93.40;;;;;;2058454;28;20115;-79
2020/12/18 02:22:53;;;;;;;5.90;3.60;;;6.80;93.10;;;;;;2066785;28;20046;-80
2020/12/18 02:23:53;;;;;;;4.80;3.33;;;6.80;93.10;;;;;;2061290;28;20039;-80
2020/12/18 02:25:03;;;;;;;5.68;3.60;;;6.80;93.10;;;;;;2065453;28;20034;-81
2020/12/18 02:26:15;;;;;;;6.60;3.85;;;6.80;93.10;;;;;;2067181;28;20036;-78
2020/12/18 02:27:17;;;;;;;8.18;3.35;;;6.80;93.10;;;;;;2066361;28;20015;-80
2020/12/18 02:28:17;;;;;;;6.05;3.50;;;6.80;93.10;;;;;;2053761;28;20023;-79
2020/12/18 02:29:18;;;;;;;6.40;3.38;;;6.80;93.10;;;;;;2050876;28;20501;-79
2020/12/18 02:30:20;;;;;;;8.35;3.90;;;6.80;93.20;;;;;;2057990;28;20077;-80
2020/12/18 02:31:20;;;;;;;4.80;3.20;;;6.80;93.10;;;;;;2056521;28;20078;-79
2020/12/18 02:32:22;;;;;;;5.68;3.40;;;6.80;93.10;;;;;;2058741;28;20019;-79
2020/12/18 02:33:22;;;;;;;8.65;3.95;;;6.80;93.10;;;;;;2059841;28;20051;-79
2020/12/18 02:34:27;;;;;;;6.88;3.53;;;6.80;93.10;;;;;;2059512;29;20035;-80
2020/12/18 02:35:28;;;;;;;6.32;3.55;;;6.80;93.10;;;;;;2055266;28;20035;-80
2020/12/18 02:36:29;;;;;;;5.63;3.38;;;6.80;93.20;;;;;;2059402;28;20020;-79
2020/12/18 02:37:30;;;;;;;9.73;3.67;;;6.80;93.10;;;;;;2045275;28;20059;-79
2020/12/18 02:38:30;;;;;;;7.05;3.35;;;6.80;93.10;;;;;;2055323;28;20031;-78
2020/12/18 02:39:31;;;;;;;7.72;3.55;;;6.80;93.40;;;;;;2053342;28;20031;-78
2020/12/18 02:40:32;;;;;;;5.22;3.08;;;6.80;93.20;;;;;;2049162;29;20448;-79
2020/12/18 02:41:32;;;;;;;5.70;3.00;;;6.80;93.20;;;;;;2052120;28;20122;-80
2020/12/18 02:42:33;;;;;;;5.88;3.50;;;6.80;93.20;;;;;;2056043;28;20061;-79
2020/12/18 02:43:34;;;;;;;4.97;3.28;;;6.80;93.20;;;;;;2051406;28;20042;-79
2020/12/18 02:44:34;;;;;;;5.07;3.08;;;6.80;93.20;;;;;;2055767;28;20489;-79
2020/12/18 02:45:35;;;;;;;5.95;3.65;;;6.80;93.20;;;;;;2057959;28;20477;-80
2020/12/18 02:46:36;;;;;;;6.50;3.33;;;6.80;93.20;;;;;;2049373;28;20126;-80
2020/12/18 02:47:36;;;;;;;4.78;3.00;;;6.80;93.20;;;;;;2048922;29;20031;-80
2020/12/18 02:48:37;;;;;;;6.40;3.35;;;6.70;93.10;;;;;;2056325;28;20023;-79
2020/12/18 02:49:38;;;;;;;5.60;3.00;;;6.80;93.20;;;;;;2051332;28;20031;-79
2020/12/18 02:50:38;;;;;;;7.70;3.00;;;6.80;93.20;;;;;;2051354;28;20055;-79
2020/12/18 02:51:40;;;;;;;4.97;3.17;;;6.70;93.20;;;;;;2051209;28;20093;-79
2020/12/18 02:52:41;;;;;;;6.53;3.30;;;6.70;93.20;;;;;;2061493;28;20023;-79
2020/12/18 02:53:41;;;;;;;7.13;3.47;;;6.70;93.20;;;;;;2058706;28;20035;-78
2020/12/18 02:54:42;;;;;;;5.72;3.22;;;6.70;93.20;;;;;;2050262;28;20020;-79
2020/12/18 02:55:44;;;;;;;6.75;2.88;;;6.70;93.20;;;;;;2057967;28;20035;-79
2020/12/18 02:56:44;;;;;;;5.70;3.13;;;6.70;93.20;;;;;;2064583;28;20023;-79
2020/12/18 02:57:45;;;;;;;7.80;3.47;;;6.70;93.20;;;;;;2063128;28;20031;-79
2020/12/18 02:58:46;;;;;;;5.25;3.00;;;6.70;93.20;;;;;;2049740;28;20061;-79
2020/12/18 02:59:46;;;;;;;6.80;3.10;;;6.70;93.30;;;;;;2054059;28;20046;-79
2020/12/18 03:00:47;;;;;;;5.38;3.20;;;6.70;93.30;;;;;;2052242;28;20063;-79
2020/12/18 03:01:47;;;;;;;7.05;3.38;;;6.70;93.20;;;;;;2055330;28;20041;-79
2020/12/18 03:02:48;;;;;;;5.55;3.05;;;6.70;93.20;;;;;;2052178;28;20524;-79
2020/12/18 03:03:49;;;;;;;6.78;3.10;;;6.70;93.30;;;;;;2057874;28;20051;-79
2020/12/18 03:04:49;;;;;;;5.47;3.08;;;6.70;93.30;;;;;;2056039;28;20146;-79
2020/12/18 03:05:50;;;;;;;5.55;2.78;;;6.70;93.30;;;;;;2043013;28;20135;-79
2020/12/18 03:06:50;;;;;;;6.65;3.13;;;6.70;93.30;;;;;;2049042;28;20023;-79
2020/12/18 03:07:51;;;;;;;6.95;3.55;;;6.70;93.20;;;;;;2057100;28;20089;-79
2020/12/18 03:08:52;;;;;;;5.22;3.08;;;6.70;93.20;;;;;;2049291;28;20539;-79
2020/12/18 03:09:53;;;;;;;7.13;3.10;;;6.70;93.20;;;;;;2055766;28;20026;-79
2020/12/18 03:10:54;;;;;;;5.50;3.30;;;6.60;93.20;;;;;;2056969;28;20039;-79
2020/12/18 03:11:54;;;;;;;6.25;3.15;;;6.60;93.20;;;;;;2047112;28;20039;-79
2020/12/18 03:12:55;;;;;;;5.95;3.10;;;6.60;93.20;;;;;;2051218;28;20031;-79
2020/12/18 03:13:55;;;;;;;4.63;2.75;;;6.70;93.20;;;;;;2056165;28;20041;-79
2020/12/18 03:14:56;;;;;;;5.70;3.08;;;6.60;93.50;;;;;;2050699;28;20046;-79
2020/12/18 03:15:57;;;;;;;6.30;3.20;;;6.60;93.20;;;;;;2047153;28;20027;-79
2020/12/18 03:16:57;;;;;;;7.30;3.72;;;6.70;93.30;;;;;;2056700;28;20034;-79
2020/12/18 03:17:58;;;;;;;4.85;3.05;;;6.60;93.30;;;;;;2057701;28;20030;-79
2020/12/18 03:18:58;;;;;;;6.88;3.55;;;6.60;93.30;;;;;;2052359;28;20043;-79
2020/12/18 03:19:59;;;;;;;6.68;3.45;;;6.60;93.50;;;;;;2052012;28;20037;-79
2020/12/18 03:21:00;;;;;;;6.07;3.00;;;6.60;93.30;;;;;;2054283;28;20027;-79
2020/12/18 03:22:00;;;;;;;5.07;3.00;;;6.60;93.30;;;;;;2054024;28;20062;-79
2020/12/18 03:23:01;;;;;;;4.57;3.05;;;6.60;93.30;;;;;;2053131;28;20469;-80
2020/12/18 03:24:02;;;;;;;5.07;2.85;;;6.60;93.30;;;;;;2034786;29;20035;-79
2020/12/18 03:25:04;;;;;;;5.70;3.38;;;6.60;93.30;;;;;;2032967;29;20032;-79
2020/12/18 03:26:04;;;;;;;6.47;3.38;;;6.60;93.30;;;;;;2041448;29;20044;-79
2020/12/18 03:27:05;;;;;;;6.60;3.30;;;6.60;93.30;;;;;;2044543;28;20035;-80
2020/12/18 03:28:06;;;;;;;5.97;3.20;;;6.60;93.30;;;;;;2050799;28;20107;-79
2020/12/18 03:29:06;;;;;;;5.65;3.10;;;6.60;93.30;;;;;;2051462;28;20026;-80
2020/12/18 03:30:07;;;;;;;6.32;3.25;;;6.60;93.30;;;;;;2054995;28;20505;-79
2020/12/18 03:31:08;;;;;;;5.30;2.95;;;6.60;93.30;;;;;;2043553;29;20059;-80
2020/12/18 03:32:08;;;;;;;5.05;3.10;;;6.60;93.30;;;;;;2050460;28;20106;-80
2020/12/18 03:33:09;;;;;;;5.20;3.08;;;6.60;93.30;;;;;;2051891;28;20556;-79
2020/12/18 03:34:10;;;;;;;5.47;3.17;;;6.60;93.30;;;;;;2056088;28;20062;-80
2020/12/18 03:35:10;;;;;;;5.05;2.95;;;6.60;93.30;;;;;;2054551;28;20062;-80
2020/12/18 03:36:11;;;;;;;5.85;3.10;;;6.60;93.30;;;;;;2050351;28;20394;-79
2020/12/18 03:37:11;;;;;;;5.20;3.33;;;6.60;93.30;;;;;;2053766;28;20037;-79
2020/12/18 03:38:12;;;;;;;6.03;3.17;;;6.60;93.30;;;;;;2054875;28;20485;-80
2020/12/18 03:39:13;;;;;;;5.35;3.30;;;6.60;93.30;;;;;;2051668;28;20034;-79
2020/12/18 03:40:16;;;;;;;5.57;2.75;;;6.60;93.30;;;;;;2055603;28;20030;-80
2020/12/18 03:41:16;;;;;;;5.88;2.92;;;6.60;93.30;;;;;;2056214;28;22233;-80
2020/12/18 03:42:17;;;;;;;6.10;3.10;;;6.60;93.30;;;;;;2056177;28;20433;-79
2020/12/18 03:43:17;;;;;;;5.15;3.00;;;6.60;93.30;;;;;;2065147;28;20022;-79
2020/12/18 03:44:18;;;;;;;5.95;3.17;;;6.60;93.30;;;;;;2061314;28;20503;-79
2020/12/18 03:45:19;;;;;;;6.28;2.85;;;6.60;93.30;;;;;;2050716;28;20034;-79
2020/12/18 03:46:19;;;;;;;5.00;2.63;;;6.60;93.30;;;;;;2044103;29;20032;-80
2020/12/18 03:47:20;;;;;;;5.72;2.83;;;6.60;93.30;;;;;;2035192;29;20061;-79
2020/12/18 03:48:20;;;;;;;4.63;2.70;;;6.60;93.30;;;;;;2053299;28;20023;-80
2020/12/18 03:49:21;;;;;;;6.63;2.80;;;6.60;93.30;;;;;;2045041;29;20071;-79
2020/12/18 03:50:22;;;;;;;6.32;2.83;;;6.60;93.30;;;;;;2041237;29;20032;-80
2020/12/18 03:51:23;;;;;;;6.57;2.80;;;6.60;93.30;;;;;;2056563;28;20057;-79
2020/12/18 03:52:23;;;;;;;5.45;2.67;;;6.60;93.30;;;;;;2052409;28;20545;-79
2020/12/18 03:53:24;;;;;;;5.07;2.80;;;6.60;93.30;;;;;;2042713;28;20075;-79
2020/12/18 03:54:24;;;;;;;5.90;2.80;;;6.60;93.30;;;;;;2040981;29;20027;-80
2020/12/18 03:55:25;;;;;;;4.10;2.63;;;6.60;93.30;;;;;;2047634;28;21476;-80
2020/12/18 03:56:26;;;;;;;5.20;2.70;;;6.60;93.30;;;;;;2052502;28;20478;-80
2020/12/18 03:57:26;;;;;;;4.43;2.70;;;6.50;93.30;;;;;;2053097;28;20067;-80
2020/12/18 03:58:27;;;;;;;5.38;3.17;;;6.60;93.30;;;;;;2050282;28;20023;-80
2020/12/18 03:59:28;;;;;;;7.13;3.08;;;6.50;93.30;;;;;;2047375;28;20039;-80
2020/12/18 04:00:29;;;;;;;8.35;3.15;;;6.60;93.40;;;;;;2056484;28;20676;-80
2020/12/18 04:01:29;;;;;;;7.43;3.05;;;6.50;93.30;;;;;;2056688;28;20045;-80
2020/12/18 04:02:30;;;;;;;6.30;2.88;;;6.60;93.40;;;;;;2056462;28;20084;-80
2020/12/18 04:03:30;;;;;;;4.57;2.70;;;6.60;93.40;;;;;;2048798;28;20405;-80
2020/12/18 04:04:31;;;;;;;6.35;3.03;;;6.60;93.40;;;;;;2040395;29;20114;-79
2020/12/18 04:05:32;;;;;;;5.07;2.78;;;6.60;93.40;;;;;;2028882;29;20029;-80
2020/12/18 04:06:32;;;;;;;5.07;2.80;;;6.60;93.30;;;;;;2040389;28;20031;-80
2020/12/18 04:07:33;;;;;;;4.68;2.63;;;6.60;93.30;;;;;;2044108;29;20042;-80
2020/12/18 04:08:34;;;;;;;5.05;2.92;;;6.60;93.30;;;;;;2043737;29;20481;-80
2020/12/18 04:09:34;;;;;;;4.13;2.50;;;6.60;93.30;;;;;;2055642;28;20579;-79
2020/12/18 04:10:35;;;;;;;4.97;2.33;;;6.60;93.30;;;;;;2054550;28;20035;-80
2020/12/18 04:11:36;;;;;;;4.47;2.63;;;6.60;93.30;;;;;;2056187;28;20031;-79
2020/12/18 04:12:36;;;;;;;5.18;2.33;;;6.60;93.30;;;;;;2040448;29;20501;-80
2020/12/18 04:13:37;;;;;;;3.97;2.40;;;6.60;93.30;;;;;;2037877;29;20043;-79
2020/12/18 04:14:38;;;;;;;5.63;2.63;;;6.60;93.40;;;;;;2045672;29;20020;-80
2020/12/18 04:15:42;;;;;;;4.63;2.50;;;6.60;93.30;;;;;;2052752;28;20038;-80
2020/12/18 04:16:43;;;;;;;4.28;2.72;;;6.60;93.30;;;;;;2053471;28;20035;-80
2020/12/18 04:17:46;;;;;;;4.97;2.60;;;6.60;93.30;;;;;;2055650;28;20465;-80
2020/12/18 04:18:48;;;;;;;7.80;3.13;;;6.60;93.30;;;;;;2048932;28;20027;-80
2020/12/18 04:19:49;;;;;;;5.65;2.67;;;6.60;93.30;;;;;;2044190;28;20498;-80
2020/12/18 04:20:49;;;;;;;4.35;2.72;;;6.60;93.30;;;;;;2044124;28;20147;-80
2020/12/18 04:21:50;;;;;;;7.63;2.55;;;6.60;93.30;;;;;;2048046;28;20082;-80
2020/12/18 04:22:50;;;;;;;4.40;2.65;;;6.60;93.30;;;;;;2052078;28;20526;-80
2020/12/18 04:23:51;;;;;;;5.55;2.85;;;6.60;93.30;;;;;;2049680;28;20520;-80
2020/12/18 04:24:52;;;;;;;5.28;2.65;;;6.60;93.30;;;;;;2054704;28;20130;-80
2020/12/18 04:25:53;;;;;;;4.25;2.20;;;6.60;93.30;;;;;;2056986;28;20168;-80
2020/12/18 04:26:54;;;;;;;5.60;2.88;;;6.60;93.30;;;;;;2048054;28;20126;-80
2020/12/18 04:27:55;;;;;;;4.65;2.45;;;6.60;93.30;;;;;;2039534;28;20027;-80
2020/12/18 04:28:55;;;;;;;5.50;2.40;;;6.60;93.30;;;;;;2045107;29;20035;-80
2020/12/18 04:29:56;;;;;;;4.22;2.50;;;6.60;93.30;;;;;;2053631;28;20058;-80
2020/12/18 04:30:58;;;;;;;5.28;2.70;;;6.60;93.30;;;;;;2048183;28;20043;-80
2020/12/18 04:31:59;;;;;;;4.13;2.60;;;6.60;93.30;;;;;;2033231;29;20246;-80
2020/12/18 04:32:59;;;;;;;4.28;2.53;;;6.60;93.60;;;;;;2047647;28;20384;-80
2020/12/18 04:34:00;;;;;;;5.13;2.50;;;6.60;93.30;;;;;;2053735;28;20022;-80
2020/12/18 04:35:01;;;;;;;6.20;2.80;;;6.60;93.30;;;;;;2050137;28;20581;-80
2020/12/18 04:36:01;;;;;;;5.40;2.55;;;6.60;93.30;;;;;;2048896;28;20114;-80
2020/12/18 04:37:02;;;;;;;4.55;2.70;;;6.60;93.30;;;;;;2050336;28;20023;-80
2020/12/18 04:38:03;;;;;;;4.32;2.35;;;6.60;93.30;;;;;;2054401;28;20073;-80
2020/12/18 04:39:04;;;;;;;4.90;2.45;;;6.60;93.30;;;;;;2055547;28;20117;-80
2020/12/18 04:40:05;;;;;;;4.68;2.63;;;6.60;93.30;;;;;;2062173;28;20030;-80
2020/12/18 04:41:06;;;;;;;3.88;2.50;;;6.60;93.30;;;;;;2064888;28;20469;-80
2020/12/18 04:42:08;;;;;;;3.65;2.60;;;6.60;93.30;;;;;;2055018;28;20421;-79
2020/12/18 04:43:08;;;;;;;4.65;2.45;;;6.60;93.30;;;;;;2053036;28;20027;-79
2020/12/18 04:44:09;;;;;;;5.32;2.65;;;6.60;93.40;;;;;;2050384;28;20066;-79
2020/12/18 04:45:11;;;;;;;3.92;2.47;;;6.60;93.30;;;;;;2055987;28;20030;-79
2020/12/18 04:46:18;;;;;;;5.60;2.53;;;6.60;93.30;;;;;;2054632;28;20027;-79
2020/12/18 04:47:18;;;;;;;5.32;2.70;;;6.60;93.40;;;;;;2054148;28;20027;-79
2020/12/18 04:48:22;;;;;;;4.20;2.50;;;6.60;93.30;;;;;;2057047;28;20077;-79
2020/12/18 04:49:24;;;;;;;6.22;2.53;;;6.60;93.30;;;;;;2060127;28;20058;-79
2020/12/18 04:50:25;;;;;;;5.93;2.70;;;6.60;93.30;;;;;;2054645;28;20023;-79
2020/12/18 04:51:26;;;;;;;4.90;2.72;;;6.60;93.30;;;;;;2056328;28;20523;-79
2020/12/18 04:52:29;;;;;;;5.63;2.50;;;6.60;93.30;;;;;;2048658;28;20034;-79
2020/12/18 04:53:34;;;;;;;5.03;2.53;;;6.60;93.40;;;;;;2056873;28;20407;-79
2020/12/18 04:54:35;;;;;;;4.18;2.40;;;6.60;93.40;;;;;;2048108;28;20043;-79
2020/12/18 04:55:41;;;;;;;4.43;2.53;;;6.60;93.30;;;;;;2048176;28;20035;-79
2020/12/18 04:56:49;;;;;;;4.32;2.50;;;6.60;93.40;;;;;;2056673;28;20035;-79
2020/12/18 04:57:50;;;;;;;4.45;2.53;;;6.50;93.30;;;;;;2048930;28;20031;-79
2020/12/18 04:58:55;;;;;;;3.92;2.50;;;6.50;93.30;;;;;;2052175;28;20517;-80
2020/12/18 04:59:56;;;;;;;4.45;2.67;;;6.50;93.60;;;;;;2044787;28;20506;-79
2020/12/18 05:00:59;;;;;;;3.53;2.40;;;6.60;93.40;;;;;;2054783;28;20068;-79
2020/12/18 05:02:00;;;;;;;4.80;2.65;;;6.50;93.30;;;;;;2053119;28;20354;-79
2020/12/18 05:03:03;;;;;;;4.00;2.30;;;6.50;93.30;;;;;;2052041;28;20042;-79
2020/12/18 05:04:07;;;;;;;4.90;2.67;;;6.60;93.40;;;;;;2052655;28;20392;-79
2020/12/18 05:05:10;;;;;;;4.35;2.80;;;6.60;93.40;;;;;;2056083;28;20037;-79
2020/12/18 05:06:10;;;;;;;5.75;2.75;;;6.50;93.30;;;;;;2051560;28;20030;-79
2020/12/18 05:07:11;;;;;;;6.35;2.90;;;6.50;93.40;;;;;;2051540;28;20449;-79
2020/12/18 05:08:11;;;;;;;5.20;2.80;;;6.50;93.30;;;;;;2055154;28;20154;-79
2020/12/18 05:09:12;;;;;;;5.45;3.20;;;6.50;93.30;;;;;;2056176;28;20039;-79
2020/12/18 05:10:13;;;;;;;4.22;2.35;;;6.50;93.30;;;;;;2048071;28;20067;-79
2020/12/18 05:11:16;;;;;;;6.20;2.95;;;6.50;93.30;;;;;;2054230;28;20076;-79
2020/12/18 05:12:17;;;;;;;4.78;2.60;;;6.50;93.30;;;;;;2050917;28;20039;-79
2020/12/18 05:13:19;;;;;;;4.70;2.95;;;6.50;93.30;;;;;;2055655;28;20113;-79
2020/12/18 05:14:28;;;;;;;4.40;2.90;;;6.50;93.40;;;;;;2051427;28;20484;-80
2020/12/18 05:15:29;;;;;;;6.72;2.42;;;6.50;93.40;;;;;;2056607;28;20022;-79
2020/12/18 05:16:30;;;;;;;4.70;2.25;;;6.50;93.40;;;;;;2052227;28;20031;-79
2020/12/18 05:17:30;;;;;;;4.40;2.63;;;6.50;93.40;;;;;;2050127;28;20031;-79
2020/12/18 05:18:31;;;;;;;5.85;2.92;;;6.50;93.40;;;;;;2054387;28;20023;-79
2020/12/18 05:19:39;;;;;;;5.60;2.72;;;6.50;93.70;;;;;;2043252;29;20520;-79
2020/12/18 05:20:41;;;;;;;6.10;2.90;;;6.50;93.40;;;;;;2048354;28;20524;-79
2020/12/18 05:21:44;;;;;;;5.40;2.42;;;6.50;93.40;;;;;;2048010;28;20430;-79
2020/12/18 05:22:44;;;;;;;5.03;2.50;;;6.50;93.40;;;;;;2048647;28;20457;-79
2020/12/18 05:23:46;;;;;;;4.53;2.55;;;6.50;93.40;;;;;;2050131;28;20027;-79